Latest Coastal Weather Observations for Cape Sorell

IDT60701

Issued at 7:32 pm EST Wednesday 6 May 2026 (issued every 10 minutes, with the page automatically refreshed every 10 minutes)

About coastal observations | Map of coastal stations | Coastal observations for TAS | Marine services | Other Formats
Station Details ID: 097000 Name: CAPE SORELL Lat: -42.20 Lon: 145.17 Height: 19.3 m
Data from the previous 72 hours. | See also: Recent months at Cape Sorell
Date/Time
EST
Wind Sea
Height
m
Swell Vis
km
Cloud Weather Temp
°C
Press
MSL
hPa
Rain since
9am
mm
Dir  Spd
kts
Gust
kts
Height
m
Period
s
Dir
06/07:30pm SSW 13 15 - - - - - - - 8.7 1009.1 7.4
06/07:00pm SW 20 27 - - - - - - - 8.6 1009.3 7.2
06/06:37pm WSW 25 37 - - - - - - - 9.6 1008.4 7.2
06/06:30pm WSW 19 27 - - - - - - - 9.6 1008.7 7.2
06/06:27pm WSW 16 27 - - - - - - - 9.7 1008.7 7.2
06/06:00pm WSW 13 16 - - - - - - Recent precip. 8.8 1008.9 7.2
06/05:30pm WSW 19 27 - - - - - - - 9.1 1009.1 7.0
06/05:19pm WSW 16 29 - - - - - - - 9.2 1008.4 6.8
06/05:00pm SW 16 19 - - - - - - - 9.3 1008.4 6.8
06/04:30pm WSW 13 15 - - - - - - - 9.7 1008.8 6.6
06/04:00pm WSW 15 19 - - - - - - - 9.6 1008.7 6.4
06/03:30pm SW 17 21 - - - - - - - 9.8 1008.8 6.2
06/03:00pm SW 20 24 - - - - - - Rain 10.1 1008.4 6.0
06/02:30pm SW 23 30 - - - - - - - 10.3 1008.0 5.4
06/02:00pm WSW 20 26 - - - - - - - 10.3 1008.1 4.4
06/01:46pm SW 15 23 - - - - - - - 10.9 1007.9 4.2
06/01:30pm SW 11 13 - - - - - - - 11.0 1008.2 3.4
06/01:00pm WSW 15 18 - - - - - - - 11.2 1009.1 2.8
06/12:30pm SW 14 16 - - - - - - - 11.7 1009.6 2.6
06/12:00pm SW 14 17 - - - - - - Rain 12.5 1009.8 1.6
06/11:30am NW 18 29 - - - - - - - 14.2 1010.1 1.0
06/11:29am NW 18 29 - - - - - - - 15.0 1010.0 1.0
06/11:00am NW 18 22 - - - - - - - 15.0 1010.5 1.0
06/10:30am NW 14 22 - - - - - - - 14.9 1011.1 1.0
06/10:00am NW 16 23 - - - - - - - 13.9 1011.3 1.0
06/09:30am NW 17 26 - - - - - - - 12.9 1011.6 1.0
06/09:15am NW 19 33 - - - - - - - 12.9 1011.6 0.6
06/09:00am NW 14 20 - - - - - - Rain 14.1 1012.0 5.6
06/08:30am NW 16 22 - - - - - - - 13.5 1012.2 5.2
06/08:00am NNW 17 23 - - - - - - - 13.4 1012.1 5.2
06/07:30am NW 19 27 - - - - - - - 12.9 1012.2 5.2
06/07:24am NW 15 25 - - - - - - - 13.1 1012.4 5.0
06/07:00am NW 13 18 - - - - - - - 13.4 1012.4 4.8
06/06:30am NW 16 22 - - - - - - - 13.4 1012.8 4.6
06/06:00am NW 16 23 - - - - - - - 12.6 1012.9 4.6
06/05:37am NW 15 29 - - - - - - - 12.6 1012.8 4.6
06/05:30am NW 14 22 - - - - - - - 13.3 1012.9 4.6
06/05:00am NW 22 34 - - - - - - - 12.8 1013.1 4.6
06/04:53am NW 17 27 - - - - - - - 13.2 1013.1 4.4
06/04:30am NW 17 22 - - - - - - - 13.4 1013.1 4.4
06/04:00am NW 20 27 - - - - - - - 13.4 1013.2 4.0
06/03:30am NW 16 21 - - - - - - - 13.6 1013.4 3.4
06/03:00am NW 16 22 - - - - - - Recent precip. 13.4 1013.8 3.4
06/02:36am NW 15 27 - - - - - - - 13.3 1013.9 3.4
06/02:30am NW 13 23 - - - - - - - 13.4 1014.1 3.4
06/02:22am NW 17 28 - - - - - - - 13.3 1014.2 3.4
06/02:00am NW 17 22 - - - - - - - 13.6 1014.3 2.4
06/01:30am NW 21 28 - - - - - - - 13.8 1014.5 1.8
06/01:24am NNW 18 28 - - - - - - - 13.8 1014.4 1.8
06/01:00am NNW 19 25 - - - - - - - 13.7 1014.8 1.6
06/12:30am NW 13 17 - - - - - - - 13.6 1015.0 1.6
06/12:00am NW 16 22 - - - - - - - 13.1 1015.2 1.4
 
Date/Time
EST
Wind Sea
Height
m
Swell Vis
km
Cloud Weather Temp
°C
Press
MSL
hPa
Rain since
9am
mm
Dir  Spd
kts
Gust
kts
Height
m
Period
s
Dir
05/11:34pm NW 15 27 - - - - - - - 13.5 1015.3 1.4
05/11:30pm NW 14 19 - - - - - - - 13.7 1015.3 1.4
05/11:00pm NW 13 18 - - - - - - - 13.5 1015.8 1.4
05/10:30pm NW 12 18 - - - - - - - 13.4 1016.0 1.4
05/10:00pm NNW 16 20 - - - - - - - 13.6 1016.1 1.4
05/09:30pm NNW 14 20 - - - - - - - 13.3 1016.2 1.4
05/09:00pm NNW 14 18 - - - - - - - 13.4 1016.3 0.8
05/08:30pm NW 13 17 - - - - - - - 13.5 1016.5 0.8
05/08:00pm NW 18 26 - - - - - - - 13.0 1016.5 0.8
05/07:58pm NNW 17 26 - - - - - - - 13.1 1016.4 0.8
05/07:57pm NNW 16 26 - - - - - - - 13.2 1016.5 0.8
05/07:30pm N 16 20 - - - - - - - 13.7 1016.5 0.4
05/07:00pm NNW 15 20 - - - - - - - 13.4 1016.5 0.4
05/06:30pm N 14 18 - - - - - - - 13.3 1016.3 0.4
05/06:00pm NNW 8 11 - - - - - - - 12.9 1016.5 0.2
05/05:30pm NNW 12 18 - - - - - - - 12.7 1016.3 0.2
05/05:00pm N 11 14 - - - - - - - 12.9 1016.1 0.2
05/04:30pm N 11 14 - - - - - - - 12.6 1016.1 0.2
05/04:00pm N 11 13 - - - - - - - 12.6 1015.9 0.2
05/03:30pm N 10 12 - - - - - - - 12.3 1015.8 0.2
05/03:00pm WNW 9 12 - - - - - - - 12.5 1016.0 0.0
05/02:30pm NW 6 12 - - - - - - - 13.4 1015.6 0.0
05/02:00pm WNW 7 9 - - - - - - - 13.8 1015.4 0.0
05/01:30pm WNW 6 11 - - - - - - - 13.2 1015.4 0.0
05/01:00pm W 8 11 - - - - - - - 12.9 1015.5 0.0
05/12:30pm W 7 13 - - - - - - - 12.7 1015.5 0.0
05/12:00pm WSW 11 16 - - - - - - - 13.4 1015.4 0.0
05/11:30am WSW 13 17 - - - - - - - 12.9 1015.4 0.0
05/11:00am W 14 18 - - - - - - - 12.2 1015.0 0.0
05/10:30am WSW 12 16 - - - - - - - 12.6 1014.5 0.0
05/10:00am WSW 14 17 - - - - - - - 12.5 1013.9 0.0
05/09:30am SW 13 16 - - - - - - - 12.4 1013.8 0.0
05/09:00am SW 16 18 - - - - - - - 12.2 1013.5 6.4
05/08:30am SW 17 20 - - - - - - - 12.3 1013.2 6.4
05/08:00am SW 14 18 - - - - - - - 12.4 1012.7 6.4
05/07:30am SW 13 17 - - - - - - - 12.1 1012.2 6.2
05/07:00am WSW 16 18 - - - - - - - 12.2 1011.6 6.2
05/06:30am WSW 18 21 - - - - - - - 12.3 1011.1 6.2
05/06:00am SW 16 19 - - - - - - - 12.6 1010.5 6.2
05/05:30am WSW 14 17 - - - - - - - 12.8 1010.1 6.2
05/05:00am SW 17 19 - - - - - - - 13.0 1009.5 6.2
05/04:30am SW 17 19 - - - - - - - 13.2 1009.0 6.2
05/04:00am SW 13 16 - - - - - - - 13.4 1008.6 6.2
05/03:30am SW 12 14 - - - - - - - 13.5 1008.2 6.2
05/03:00am SW 14 17 - - - - - - Recent precip. 13.7 1008.0 6.2
05/02:30am SW 13 15 - - - - - - - 14.1 1007.8 6.2
05/02:00am N 1 3 - - - - - - - 13.7 1007.8 0.0
05/01:30am CALM 0 0 - - - - - - - 13.4 1007.6 0.0
05/01:00am CALM 0 0 - - - - - - - 13.4 1007.6 0.0
05/12:30am CALM 0 0 - - - - - - - 13.7 1007.4 0.0
05/12:00am CALM 0 0 - - - - - - - 13.0 1007.3 0.0
 
Date/Time
EST
Wind Sea
Height
m
Swell Vis
km
Cloud Weather Temp
°C
Press
MSL
hPa
Rain since
9am
mm
Dir  Spd
kts
Gust
kts
Height
m
Period
s
Dir
04/11:30pm ENE 4 5 - - - - - - - 13.2 1007.2 0.0
04/11:00pm ENE 4 5 - - - - - - - 13.3 1007.3 0.0
04/10:30pm ENE 5 6 - - - - - - - 13.6 1007.4 0.0
04/10:00pm NE 6 8 - - - - - - - 13.7 1007.2 0.0
04/09:30pm ENE 5 7 - - - - - - - 13.7 1007.1 0.0
04/09:00pm NE 7 8 - - - - - - - 14.3 1007.0 0.0
04/08:30pm NNE 9 11 - - - - - - - 14.5 1006.8 0.0
04/08:00pm NE 9 10 - - - - - - - 14.4 1006.8 0.0
04/07:30pm NNE 9 11 - - - - - - - 14.5 1006.7 0.0
04/07:00pm NNE 10 13 - - - - - - - 14.8 1006.5 0.0
04/06:30pm NNE 13 15 - - - - - - - 14.9 1006.2 0.0
04/06:00pm NNE 14 17 - - - - - - - 15.1 1006.0 0.0
04/05:30pm N 13 16 - - - - - - - 15.4 1005.9 0.0
04/05:00pm N 16 20 - - - - - - - 15.7 1005.7 0.0
04/04:30pm N 11 16 - - - - - - - 15.9 1005.6 0.0
04/04:00pm NNE 10 12 - - - - - - - 15.8 1005.5 0.0
04/03:30pm NNE 10 11 - - - - - - - 16.2 1005.4 0.0
04/03:00pm NNE 11 14 - - - - - - - 16.4 1005.5 0.0
04/02:30pm NNE 11 13 - - - - - - - 17.0 1005.5 0.0
04/02:00pm NNE 14 16 - - - - - - - 17.2 1005.6 0.0
04/01:30pm NNE 11 14 - - - - - - - 16.6 1005.8 0.0
04/01:00pm NNE 13 16 - - - - - - - 16.6 1006.3 0.0
04/12:30pm NNE 8 11 - - - - - - - 16.9 1006.7 0.0
04/12:00pm N 9 11 - - - - - - - 17.8 1007.2 0.0
04/11:30am NNE 13 16 - - - - - - - 17.3 1007.3 0.0
04/11:00am NNE 11 12 - - - - - - - 16.7 1007.6 0.0
04/10:30am NNE 13 15 - - - - - - - 16.4 1007.6 0.0
04/10:00am NNE 12 14 - - - - - - - 15.8 1007.5 0.0
04/09:30am NNE 13 15 - - - - - - - 15.4 1007.7 0.0
04/09:00am NE 12 13 - - - - - - - 14.9 1007.7 14.6
04/08:30am NNE 12 14 - - - - - - - 14.4 1007.7 14.6
04/08:00am NNE 11 14 - - - - - - - 14.2 1007.8 14.6
04/07:30am NNE 13 16 - - - - - - - 14.0 1007.7 14.6
04/07:00am NNE 13 17 - - - - - - - 14.1 1007.6 14.6
04/06:30am NNE 14 17 - - - - - - - 13.8 1007.7 14.6
04/06:00am NNE 13 16 - - - - - - - 13.7 1007.7 14.6
04/05:30am NNE 12 14 - - - - - - - 13.7 1007.5 14.6
04/05:00am NE 12 13 - - - - - - - 13.7 1007.5 14.6
04/04:30am NNE 12 15 - - - - - - - 14.1 1007.7 14.6
04/04:00am NNE 12 15 - - - - - - - 14.2 1007.7 14.6
04/03:30am NNE 12 14 - - - - - - - 14.1 1008.0 14.6
04/03:00am NNE 11 14 - - - - - - - 14.1 1008.2 14.6
04/02:30am NE 12 14 - - - - - - - 13.8 1008.2 14.6
04/02:00am NNE 12 14 - - - - - - - 13.9 1008.4 14.6
04/01:30am NNE 12 14 - - - - - - - 13.7 1008.4 14.6
04/01:00am NE 10 13 - - - - - - - 13.4 1008.5 14.6
04/12:30am NE 9 12 - - - - - - - 13.3 1008.6 14.6
04/12:00am NE 12 14 - - - - - - - 13.5 1009.2 14.6
 
Date/Time
EST
Wind Sea
Height
m
Swell Vis
km
Cloud Weather Temp
°C
Press
MSL
hPa
Rain since
9am
mm
Dir  Spd
kts
Gust
kts
Height
m
Period
s
Dir
03/11:30pm NE 11 13 - - - - - - - 13.6 1009.6 14.6
03/11:00pm NE 11 12 - - - - - - - 13.6 1009.8 14.6
03/10:30pm N 11 13 - - - - - - - 14.0 1010.1 14.6
03/10:00pm N 12 15 - - - - - - - 14.3 1010.3 14.6
03/09:30pm N 12 15 - - - - - - - 14.5 1010.1 14.6
03/09:00pm N 12 14 - - - - - - - 14.4 1009.7 14.6
03/08:30pm NNW 10 13 - - - - - - - 14.5 1009.6 14.6
03/08:00pm NNW 11 16 - - - - - - - 14.3 1009.5 14.6

Other formats

Comma delimited format used in spreadsheet applications
http://www.bom.gov.au/fwo/IDT60701/IDT60701.94974.axf

JavaScript Object Notation format (JSON) in row-major order
http://www.bom.gov.au/fwo/IDT60701/IDT60701.94974.json

Data quality

Most of these data are generated automatically and are frequently updated. Quality checks on data are not normally performed. It is possible for incorrect values to appear. Refer to information at About Latest Weather Observations and please check the disclaimer before using these data.